createdAt,value
2016-11-16T01:30:17.293Z,922.93
2016-11-16T01:31:30.986Z,922.89
2016-11-16T01:32:44.542Z,922.94
2016-11-16T01:33:58.452Z,922.97
2016-11-16T01:35:12.025Z,923.01
2016-11-16T01:36:25.661Z,922.97
2016-11-16T01:37:38.416Z,922.91
2016-11-16T01:38:52.320Z,922.85
2016-11-16T01:40:05.172Z,922.79
2016-11-16T01:41:19.134Z,922.71
2016-11-16T01:42:32.760Z,922.64
2016-11-16T01:46:01.723Z,922.62
2016-11-16T01:47:15.272Z,922.61
2016-11-16T01:48:28.863Z,922.61
2016-11-16T01:49:41.370Z,922.62
2016-11-16T01:50:55.447Z,922.62
2016-11-16T01:52:08.586Z,922.61
2016-11-16T01:53:21.940Z,922.61
2016-11-16T01:54:35.509Z,922.61
2016-11-16T01:55:48.512Z,922.62
2016-11-16T01:57:02.072Z,922.63
2016-11-16T01:58:15.177Z,922.58
2016-11-16T01:59:28.682Z,922.65
2016-11-16T02:00:42.238Z,922.61
2016-11-16T02:01:55.350Z,922.61
2016-11-16T02:03:08.900Z,922.55
2016-11-16T02:04:22.215Z,922.5
2016-11-16T02:05:35.772Z,922.52
2016-11-16T02:06:49.246Z,922.54
2016-11-16T02:08:02.916Z,922.47
2016-11-16T02:09:16.486Z,922.49
2016-11-16T02:10:29.576Z,922.46
2016-11-16T02:11:42.575Z,922.47
2016-11-16T02:12:56.107Z,922.48
2016-11-16T02:14:09.230Z,922.49
2016-11-16T02:15:22.356Z,922.54
2016-11-16T02:16:35.353Z,922.55
2016-11-16T02:17:48.657Z,922.55
2016-11-16T02:19:02.345Z,922.55
2016-11-16T02:20:15.391Z,922.58
2016-11-16T02:21:28.677Z,922.61
2016-11-16T02:22:42.317Z,922.64
2016-11-16T02:23:55.461Z,922.69
2016-11-16T02:25:09.119Z,922.71
2016-11-16T02:26:22.751Z,922.69
2016-11-16T02:27:36.373Z,922.67
2016-11-16T02:28:49.744Z,922.66
2016-11-16T02:30:02.837Z,922.61
2016-11-16T02:31:16.361Z,922.63
2016-11-16T02:32:29.968Z,922.6
2016-11-16T02:33:43.529Z,922.64
2016-11-16T02:34:57.155Z,922.65
2016-11-16T02:36:10.778Z,922.65
2016-11-16T02:37:24.339Z,922.7
2016-11-16T02:39:09.049Z,922.67
2016-11-16T02:40:22.714Z,922.66
2016-11-16T02:41:36.301Z,922.64
2016-11-16T02:42:49.399Z,922.65
2016-11-16T02:44:02.547Z,922.65
2016-11-16T02:45:16.095Z,922.7
2016-11-16T02:46:29.391Z,922.67
2016-11-16T02:47:42.469Z,922.66
2016-11-16T02:48:55.587Z,922.69
2016-11-16T02:50:08.929Z,922.7
2016-11-16T02:51:22.374Z,922.7
2016-11-16T02:52:35.990Z,922.67
2016-11-16T02:53:49.584Z,922.69
2016-11-16T02:55:02.648Z,922.63
2016-11-16T02:56:16.312Z,922.65
2016-11-16T02:57:29.970Z,922.63
2016-11-16T02:58:43.509Z,922.66
2016-11-16T02:59:57.086Z,922.6
2016-11-16T03:01:10.164Z,922.64
2016-11-16T03:02:23.765Z,922.59
2016-11-16T03:03:37.366Z,922.57
2016-11-16T03:04:49.963Z,922.54
2016-11-16T03:06:03.557Z,922.53
2016-11-16T03:07:16.620Z,922.53
2016-11-16T03:08:29.915Z,922.57
2016-11-16T03:09:43.572Z,922.55
2016-11-16T03:10:57.167Z,922.59
2016-11-16T03:12:10.222Z,922.61
2016-11-16T03:13:23.816Z,922.62
2016-11-16T03:14:37.434Z,922.61
2016-11-16T03:15:51.083Z,922.65
2016-11-16T03:17:04.714Z,922.67
2016-11-16T03:18:18.221Z,922.67
2016-11-16T03:19:31.853Z,922.64
2016-11-16T03:20:45.427Z,922.66
2016-11-16T03:21:58.947Z,922.63
2016-11-16T03:23:12.567Z,922.65
2016-11-16T03:24:26.150Z,922.61
2016-11-16T03:25:39.783Z,922.64
2016-11-16T03:26:53.421Z,922.53
2016-11-16T03:28:07.011Z,922.51
2016-11-16T03:29:20.888Z,922.52
2016-11-16T03:30:33.876Z,922.52
2016-11-16T03:31:47.490Z,922.46
2016-11-16T03:33:00.821Z,922.5
2016-11-16T03:34:14.478Z,922.51
2016-11-16T03:35:28.268Z,922.52
2016-11-16T03:36:41.798Z,922.54
2016-11-16T03:37:54.929Z,922.54
2016-11-16T03:39:08.599Z,922.5
2016-11-16T03:40:22.350Z,922.44
2016-11-16T03:41:35.945Z,922.51
2016-11-16T03:42:49.531Z,922.55
2016-11-16T03:44:02.587Z,922.51
2016-11-16T03:45:16.147Z,922.54
2016-11-16T03:46:29.794Z,922.52
2016-11-16T03:47:43.406Z,922.53
2016-11-16T03:48:57.018Z,922.56
2016-11-16T03:50:10.682Z,922.58
2016-11-16T03:51:24.252Z,922.55
2016-11-16T03:52:37.588Z,922.57
2016-11-16T03:53:51.224Z,922.56
2016-11-16T03:55:04.824Z,922.57
2016-11-16T03:56:18.418Z,922.57
2016-11-16T03:57:32.066Z,922.52
2016-11-16T03:58:45.626Z,922.53
2016-11-16T03:59:59.226Z,922.55
2016-11-16T04:01:12.541Z,922.56
2016-11-16T04:02:26.150Z,922.6
2016-11-16T04:03:39.814Z,922.62
2016-11-16T04:04:53.450Z,922.59
2016-11-16T04:06:07.061Z,922.56
2016-11-16T04:07:20.703Z,922.54
2016-11-16T04:08:34.296Z,922.5
2016-11-16T04:09:47.673Z,922.53
2016-11-16T04:11:01.380Z,922.5
2016-11-16T04:12:14.934Z,922.45
2016-11-16T04:13:28.728Z,922.47
2016-11-16T04:14:41.775Z,922.43
2016-11-16T04:15:55.611Z,922.42
2016-11-16T04:17:09.231Z,922.41
2016-11-16T04:18:22.567Z,922.43
2016-11-16T04:19:36.123Z,922.43
2016-11-16T04:20:49.727Z,922.41
2016-11-16T04:22:03.310Z,922.35
2016-11-16T04:23:16.923Z,922.37
2016-11-16T04:24:30.537Z,922.3
2016-11-16T04:25:44.101Z,922.3
2016-11-16T04:26:57.633Z,922.28
2016-11-16T04:28:10.944Z,922.26
2016-11-16T04:29:24.599Z,922.28
2016-11-16T04:30:38.182Z,922.28
2016-11-16T04:31:51.777Z,922.25
2016-11-16T04:33:05.337Z,922.3
2016-11-16T04:34:18.550Z,922.31
2016-11-16T04:35:31.876Z,922.33
2016-11-16T04:36:45.438Z,922.32
2016-11-16T04:37:59.060Z,922.32
2016-11-16T04:39:12.651Z,922.35
2016-11-16T04:40:26.228Z,922.37
2016-11-16T04:41:39.836Z,922.37
2016-11-16T04:42:53.457Z,922.32
2016-11-16T04:44:07.006Z,922.36
2016-11-16T04:45:20.643Z,922.34
2016-11-16T04:46:34.025Z,922.36
2016-11-16T04:47:47.062Z,922.38
2016-11-16T04:49:00.649Z,922.39
2016-11-16T04:50:13.885Z,922.37
2016-11-16T04:51:26.928Z,922.38
2016-11-16T04:52:39.946Z,922.39
2016-11-16T04:53:53.548Z,922.37
2016-11-16T04:55:06.653Z,922.37
2016-11-16T04:56:20.254Z,922.42
2016-11-16T04:57:33.330Z,922.42
2016-11-16T04:58:46.931Z,922.4
2016-11-16T05:00:00.511Z,922.45
2016-11-16T05:01:13.879Z,922.45
2016-11-16T05:02:26.951Z,922.46
2016-11-16T05:03:40.063Z,922.48
2016-11-16T05:04:53.049Z,922.52
2016-11-16T05:06:06.629Z,922.57
2016-11-16T05:07:20.260Z,922.59
2016-11-16T05:08:33.299Z,922.58
2016-11-16T05:09:46.482Z,922.61
2016-11-16T05:10:59.623Z,922.55
2016-11-16T05:12:13.191Z,922.56
2016-11-16T05:13:26.758Z,922.54
2016-11-16T05:14:40.355Z,922.56
2016-11-16T05:15:53.999Z,922.56
2016-11-16T05:17:07.684Z,922.48
2016-11-16T05:18:21.334Z,922.5
2016-11-16T05:19:34.885Z,922.5
2016-11-16T05:20:48.153Z,922.55
2016-11-16T05:22:01.771Z,922.53
2016-11-16T05:23:15.333Z,922.54
2016-11-16T05:24:28.981Z,922.52
2016-11-16T05:25:42.567Z,922.5
2016-11-16T05:26:56.099Z,922.53
2016-11-16T05:28:09.447Z,922.53
2016-11-16T05:29:22.995Z,922.55
2016-11-16T05:30:36.607Z,922.57
2016-11-16T05:31:50.171Z,922.57
2016-11-16T05:33:03.780Z,922.59
2016-11-16T05:34:17.456Z,922.6
2016-11-16T05:35:31.008Z,922.58
2016-11-16T05:36:44.357Z,922.6
2016-11-16T05:37:57.953Z,922.61
2016-11-16T05:39:11.533Z,922.68
2016-11-16T05:40:25.384Z,922.68
2016-11-16T05:41:39.048Z,922.67
2016-11-16T05:42:52.687Z,922.67
2016-11-16T05:44:06.243Z,922.66
2016-11-16T05:45:19.846Z,922.67
2016-11-16T05:46:33.440Z,922.66
2016-11-16T05:47:46.534Z,922.66
2016-11-16T05:49:00.166Z,922.7
2016-11-16T05:50:13.788Z,922.73
2016-11-16T05:51:27.375Z,922.73
2016-11-16T05:52:41.006Z,922.76
2016-11-16T05:53:54.620Z,922.72
2016-11-16T05:55:08.138Z,922.75
2016-11-16T05:56:21.751Z,922.7
2016-11-16T05:57:35.299Z,922.7
2016-11-16T05:58:48.660Z,922.65
2016-11-16T06:00:02.320Z,922.68
2016-11-16T06:01:15.878Z,922.67
2016-11-16T06:02:29.499Z,922.67
2016-11-16T06:03:43.064Z,922.67
2016-11-16T06:04:56.369Z,922.67
2016-11-16T06:06:10.015Z,922.66
2016-11-16T06:07:23.300Z,922.63
2016-11-16T06:08:36.890Z,922.59
2016-11-16T06:09:50.499Z,922.54
2016-11-16T06:11:04.132Z,922.53
2016-11-16T06:12:17.446Z,922.5
2016-11-16T06:13:31.033Z,922.46
2016-11-16T06:14:44.695Z,922.48
2016-11-16T06:15:58.217Z,922.45
2016-11-16T06:17:11.838Z,922.38
2016-11-16T06:18:25.436Z,922.32
2016-11-16T06:19:39.026Z,922.27
2016-11-16T06:20:52.851Z,922.21
2016-11-16T06:22:06.508Z,922.16
2016-11-16T06:23:20.152Z,922.19
2016-11-16T06:24:33.752Z,922.14
2016-11-16T06:25:47.314Z,922.12
2016-11-16T06:27:00.903Z,922.13
2016-11-16T06:28:14.489Z,922.15
2016-11-16T06:29:27.574Z,922.11
2016-11-16T06:30:41.260Z,922.15
2016-11-16T06:31:54.882Z,922.22
2016-11-16T06:33:08.477Z,922.21
2016-11-16T06:34:22.067Z,922.22
2016-11-16T06:35:35.612Z,922.21
2016-11-16T06:36:49.250Z,922.19
2016-11-16T06:38:02.932Z,922.16
2016-11-16T06:39:16.544Z,922.14
2016-11-16T06:40:30.087Z,922.12
2016-11-16T06:41:43.679Z,922.21
2016-11-16T06:42:57.299Z,922.18
2016-11-16T06:44:11.002Z,922.2
2016-11-16T06:45:24.576Z,922.21
2016-11-16T06:46:38.154Z,922.21
2016-11-16T06:47:51.765Z,922.23
2016-11-16T06:49:05.080Z,922.28
2016-11-16T06:50:18.749Z,922.22
2016-11-16T06:51:32.354Z,922.29
2016-11-16T06:52:45.907Z,922.26
2016-11-16T06:53:59.605Z,922.25
2016-11-16T06:55:13.203Z,922.28
2016-11-16T06:56:26.766Z,922.31
2016-11-16T06:57:40.353Z,922.4
2016-11-16T06:58:53.923Z,922.46
2016-11-16T07:00:07.451Z,922.48
2016-11-16T07:01:21.096Z,922.5
2016-11-16T07:02:34.796Z,922.46
2016-11-16T07:03:48.649Z,922.53
2016-11-16T07:05:02.264Z,922.58
2016-11-16T07:06:15.915Z,922.62
2016-11-16T07:07:29.481Z,922.64
2016-11-16T07:08:43.072Z,922.64
2016-11-16T07:10:27.784Z,922.6
2016-11-16T07:11:41.431Z,922.6
2016-11-16T07:12:54.953Z,922.56
2016-11-16T07:14:08.561Z,922.51
2016-11-16T07:15:21.643Z,922.49
2016-11-16T07:16:34.732Z,922.46
2016-11-16T07:17:47.902Z,922.49
2016-11-16T07:19:01.608Z,922.56
2016-11-16T07:20:15.210Z,922.56
2016-11-16T07:21:29.230Z,922.6
2016-11-16T07:22:42.764Z,922.62
2016-11-16T07:23:56.314Z,922.61
2016-11-16T07:25:09.920Z,922.63
2016-11-16T07:26:23.512Z,922.66
2016-11-16T07:27:37.060Z,922.72
2016-11-16T07:28:50.654Z,922.73
2016-11-16T07:30:04.300Z,922.7
2016-11-16T07:31:17.877Z,922.76
2016-11-16T07:32:31.501Z,922.74
2016-11-16T07:33:44.545Z,922.73
2016-11-16T07:34:58.087Z,922.64
2016-11-16T07:36:11.691Z,922.66
2016-11-16T07:37:25.329Z,922.71
2016-11-16T07:38:38.987Z,922.76
2016-11-16T07:39:53.021Z,922.74
2016-11-16T07:41:06.690Z,922.76
2016-11-16T07:42:51.639Z,922.78
2016-11-16T07:44:05.237Z,922.81
2016-11-16T07:45:18.803Z,922.77
2016-11-16T07:46:32.394Z,922.76
2016-11-16T07:47:46.029Z,922.76
2016-11-16T07:48:59.584Z,922.82
2016-11-16T07:50:13.182Z,922.79
2016-11-16T07:51:26.804Z,922.85
2016-11-16T07:52:40.438Z,922.91
2016-11-16T07:53:54.038Z,922.97
2016-11-16T07:55:06.816Z,922.98
2016-11-16T07:56:20.420Z,923
2016-11-16T07:57:34.091Z,922.99
2016-11-16T07:58:47.703Z,923
2016-11-16T08:00:01.348Z,922.96
2016-11-16T08:01:14.454Z,922.93
2016-11-16T08:02:27.991Z,922.93
2016-11-16T08:03:41.596Z,922.98
2016-11-16T08:04:55.183Z,923
2016-11-16T08:06:08.177Z,923.02
2016-11-16T08:07:21.828Z,923.04
2016-11-16T08:08:35.166Z,923.07
2016-11-16T08:09:48.735Z,923.09
2016-11-16T08:11:01.812Z,923.09
2016-11-16T08:12:46.006Z,923.08
2016-11-16T08:13:59.525Z,923.08
2016-11-16T08:15:13.113Z,923.08
2016-11-16T08:16:26.797Z,923.08
2016-11-16T08:17:40.387Z,923.09
2016-11-16T08:18:54.052Z,923.09
2016-11-16T08:20:07.339Z,923.13
2016-11-16T08:21:20.998Z,923.12
2016-11-16T08:22:34.624Z,923.12
2016-11-16T08:23:48.197Z,923.08
2016-11-16T08:25:01.850Z,923.09
2016-11-16T08:26:15.442Z,923.1
2016-11-16T08:27:29.121Z,923.09
2016-11-16T08:28:42.684Z,923.13
2016-11-16T08:29:55.549Z,923.11
2016-11-16T08:31:08.610Z,923.18
2016-11-16T08:32:22.212Z,923.2
2016-11-16T08:33:35.861Z,923.19
2016-11-16T08:34:49.455Z,923.19
2016-11-16T08:36:01.981Z,923.16
2016-11-16T08:37:15.537Z,923.18
2016-11-16T08:38:28.607Z,923.19
2016-11-16T08:39:41.655Z,923.16
2016-11-16T08:40:54.852Z,923.14
2016-11-16T08:42:07.929Z,923.12
2016-11-16T08:43:21.024Z,923.16
2016-11-16T08:44:33.541Z,923.19
2016-11-16T08:45:47.195Z,923.19
2016-11-16T08:47:00.806Z,923.22
2016-11-16T08:48:14.428Z,923.3
2016-11-16T08:49:28.102Z,923.36
2016-11-16T08:50:41.715Z,923.34
2016-11-16T08:51:55.333Z,923.34
2016-11-16T08:53:08.453Z,923.35
2016-11-16T08:54:21.796Z,923.35
2016-11-16T08:55:35.426Z,923.36
2016-11-16T08:56:48.641Z,923.39
2016-11-16T08:58:02.250Z,923.42
2016-11-16T08:59:15.797Z,923.49
2016-11-16T09:00:28.883Z,923.5
2016-11-16T09:01:41.861Z,923.54
2016-11-16T09:02:54.955Z,923.55
2016-11-16T09:04:08.010Z,923.57
2016-11-16T09:05:21.038Z,923.57
2016-11-16T09:06:34.064Z,923.61
2016-11-16T09:07:47.856Z,923.61
2016-11-16T09:09:01.525Z,923.64
2016-11-16T09:10:14.617Z,923.65
2016-11-16T09:11:27.676Z,923.68
2016-11-16T09:12:40.725Z,923.65
2016-11-16T09:13:54.226Z,923.73
2016-11-16T09:15:07.566Z,923.77
2016-11-16T09:16:20.641Z,923.77
2016-11-16T09:17:34.218Z,923.79
2016-11-16T09:18:47.318Z,923.78
2016-11-16T09:20:00.899Z,923.82
2016-11-16T09:21:13.959Z,923.86
2016-11-16T09:22:27.555Z,923.85
2016-11-16T09:23:40.046Z,923.87
2016-11-16T09:24:53.645Z,923.9
2016-11-16T09:26:07.224Z,923.92
2016-11-16T09:27:20.871Z,923.93
2016-11-16T09:28:34.443Z,923.87
2016-11-16T09:29:48.065Z,923.91
2016-11-16T09:31:01.676Z,923.87
2016-11-16T09:32:15.256Z,923.89
2016-11-16T09:33:28.266Z,923.86
2016-11-16T09:34:41.537Z,923.88
2016-11-16T09:35:55.162Z,923.89
2016-11-16T09:37:08.202Z,923.9
2016-11-16T09:38:21.792Z,923.95
2016-11-16T09:39:34.545Z,923.98
2016-11-16T09:40:48.044Z,924.01
2016-11-16T09:42:01.100Z,924.02
2016-11-16T09:43:14.764Z,923.99
2016-11-16T09:44:28.411Z,923.98
2016-11-16T09:45:42.002Z,924.05
2016-11-16T09:46:55.597Z,924.07
2016-11-16T09:48:09.287Z,924.1
2016-11-16T09:49:22.374Z,924.12
2016-11-16T09:50:35.948Z,924.15
2016-11-16T09:51:49.861Z,924.1
2016-11-16T09:53:03.518Z,924.14
2016-11-16T09:54:17.056Z,924.12
2016-11-16T09:55:29.905Z,924.14
2016-11-16T09:56:43.572Z,924.11
2016-11-16T09:57:57.155Z,924.1
2016-11-16T09:59:10.734Z,924.08
2016-11-16T10:00:23.783Z,924.05
2016-11-16T10:01:37.367Z,924.08
2016-11-16T10:02:50.914Z,924.06
2016-11-16T10:04:04.465Z,924.13
2016-11-16T10:05:18.051Z,924.11
2016-11-16T10:06:31.724Z,924.07
2016-11-16T10:07:44.349Z,924.05
2016-11-16T10:09:29.104Z,924.11
2016-11-16T10:10:41.669Z,924.08
2016-11-16T10:11:55.239Z,924.11
2016-11-16T10:13:08.871Z,924.15
2016-11-16T10:14:22.006Z,924.13
2016-11-16T10:15:34.507Z,924.18
2016-11-16T10:16:48.086Z,924.18
2016-11-16T10:18:01.741Z,924.18
2016-11-16T10:19:14.782Z,924.2
2016-11-16T10:20:28.351Z,924.18
2016-11-16T10:21:40.823Z,924.19
2016-11-16T10:22:54.452Z,924.14
2016-11-16T10:24:08.152Z,924.11
2016-11-16T10:25:21.828Z,924.09
2016-11-16T10:26:34.901Z,924.08
2016-11-16T10:27:47.733Z,924.13
2016-11-16T10:29:00.822Z,924.19
2016-11-16T10:30:13.919Z,924.25
2016-11-16T10:31:58.594Z,924.29
2016-11-16T10:33:12.136Z,924.26
2016-11-16T10:34:26.081Z,924.24
2016-11-16T10:35:39.347Z,924.26
2016-11-16T10:36:52.394Z,924.24
2016-11-16T10:38:05.500Z,924.25
2016-11-16T10:39:19.112Z,924.29
2016-11-16T10:41:03.866Z,924.3
2016-11-16T10:42:17.447Z,924.36
2016-11-16T10:43:31.055Z,924.31
2016-11-16T10:44:44.705Z,924.35
2016-11-16T10:45:57.811Z,924.33
2016-11-16T10:47:11.387Z,924.36
2016-11-16T10:48:24.678Z,924.32
2016-11-16T10:49:38.220Z,924.25
2016-11-16T10:50:51.797Z,924.26
2016-11-16T10:52:04.850Z,924.25
2016-11-16T10:53:17.927Z,924.17
2016-11-16T10:54:30.483Z,924.19
2016-11-16T10:55:43.523Z,924.18
2016-11-16T10:56:56.546Z,924.22
2016-11-16T10:58:09.586Z,924.2
2016-11-16T10:59:22.688Z,924.2
2016-11-16T11:00:35.770Z,924.27
2016-11-16T11:01:49.395Z,924.34
2016-11-16T11:03:02.416Z,924.25
2016-11-16T11:04:15.937Z,924.26
2016-11-16T11:05:29.545Z,924.21
2016-11-16T11:06:43.194Z,924.19
2016-11-16T11:07:56.796Z,924.16
2016-11-16T11:09:10.134Z,924.18
2016-11-16T11:10:23.752Z,924.17
2016-11-16T11:11:37.290Z,924.12
2016-11-16T11:12:50.929Z,924.04
2016-11-16T11:14:04.588Z,924.04
2016-11-16T11:15:18.269Z,924.09
2016-11-16T11:16:31.780Z,924.1
2016-11-16T11:17:44.325Z,924.11
2016-11-16T11:18:56.870Z,924.08
2016-11-16T11:20:10.404Z,924.04
2016-11-16T11:21:24.020Z,924
2016-11-16T11:22:37.150Z,924.03
2016-11-16T11:23:50.680Z,924.05
2016-11-16T11:25:04.314Z,923.98
2016-11-16T11:26:17.974Z,923.94
2016-11-16T11:27:31.580Z,923.91
2016-11-16T11:28:45.209Z,923.93
2016-11-16T11:29:58.751Z,923.94
2016-11-16T11:31:12.401Z,924.04
2016-11-16T11:32:26.157Z,923.96
2016-11-16T11:33:39.256Z,923.92
2016-11-16T11:34:53.005Z,923.87
2016-11-16T11:36:06.130Z,923.83
2016-11-16T11:37:19.236Z,923.85
2016-11-16T11:38:32.237Z,923.91
2016-11-16T11:39:45.805Z,923.85
2016-11-16T11:40:59.436Z,923.93
2016-11-16T11:42:13.026Z,923.81
2016-11-16T11:43:26.362Z,923.81
2016-11-16T11:44:39.454Z,923.75
2016-11-16T11:45:52.607Z,923.75
2016-11-16T11:47:05.359Z,923.72
2016-11-16T11:48:18.731Z,923.67
2016-11-16T11:49:32.366Z,923.76
2016-11-16T11:50:45.370Z,923.71
2016-11-16T11:51:59.249Z,923.74
2016-11-16T11:53:12.871Z,923.69
2016-11-16T11:54:26.536Z,923.72
2016-11-16T11:55:39.695Z,923.68
2016-11-16T11:56:53.403Z,923.63
2016-11-16T11:58:07.002Z,923.67
2016-11-16T11:59:20.593Z,923.67
2016-11-16T12:00:33.142Z,923.72
2016-11-16T12:01:46.739Z,923.67
2016-11-16T12:03:00.280Z,923.67
2016-11-16T12:04:13.587Z,923.68
2016-11-16T12:05:26.985Z,923.66
2016-11-16T12:06:39.969Z,923.67
2016-11-16T12:07:53.644Z,923.66
2016-11-16T12:09:05.594Z,923.78
2016-11-16T12:10:18.915Z,923.76
2016-11-16T12:11:32.518Z,923.87
2016-11-16T12:12:46.106Z,923.72
2016-11-16T12:13:59.706Z,923.72
2016-11-16T12:15:12.807Z,923.69
2016-11-16T12:16:26.168Z,923.72
2016-11-16T12:17:39.829Z,923.61
2016-11-16T12:18:53.474Z,923.63
2016-11-16T12:20:06.479Z,923.6
2016-11-16T12:21:19.640Z,923.65
2016-11-16T12:22:33.159Z,923.77
2016-11-16T12:23:46.706Z,923.65
2016-11-16T12:24:59.734Z,923.81
2016-11-16T12:26:13.375Z,923.69
2016-11-16T12:27:26.916Z,923.65
2016-11-16T12:28:40.564Z,923.6
2016-11-16T12:29:53.633Z,923.63
2016-11-16T12:31:07.184Z,923.62
2016-11-16T12:32:20.282Z,923.61
2016-11-16T12:34:04.425Z,923.65
2016-11-16T12:35:18.153Z,923.65
2016-11-16T12:36:31.770Z,923.55
2016-11-16T12:37:45.364Z,923.54
2016-11-16T12:38:58.459Z,923.6
2016-11-16T12:40:12.078Z,923.7
2016-11-16T12:41:25.661Z,923.63
2016-11-16T12:42:39.237Z,923.68
2016-11-16T12:43:52.528Z,923.8
2016-11-16T12:45:06.168Z,923.73
2016-11-16T12:46:19.959Z,923.71
2016-11-16T12:47:33.646Z,923.69
2016-11-16T12:48:47.259Z,923.79
2016-11-16T12:50:00.315Z,923.7
2016-11-16T12:51:13.387Z,923.71
2016-11-16T12:52:26.977Z,923.65
2016-11-16T12:53:40.530Z,923.58
2016-11-16T12:54:53.601Z,923.56
2016-11-16T12:56:06.667Z,923.55
2016-11-16T12:57:20.224Z,923.51
2016-11-16T12:58:32.702Z,923.55
2016-11-16T12:59:46.331Z,923.69
2016-11-16T13:00:58.847Z,923.65
2016-11-16T13:02:12.388Z,923.58
2016-11-16T13:03:25.149Z,923.66
2016-11-16T13:04:38.733Z,923.59
2016-11-16T13:05:52.246Z,923.59
2016-11-16T13:07:05.859Z,923.5
2016-11-16T13:08:18.953Z,923.52
2016-11-16T13:09:32.030Z,923.55
2016-11-16T13:10:45.601Z,923.61
2016-11-16T13:11:59.236Z,923.58
2016-11-16T13:13:12.792Z,923.56
2016-11-16T13:14:25.857Z,923.5
2016-11-16T13:15:38.957Z,923.53
2016-11-16T13:16:52.638Z,923.47
2016-11-16T13:18:06.214Z,923.43
2016-11-16T13:19:19.323Z,923.43
2016-11-16T13:20:32.871Z,923.51
2016-11-16T13:21:45.958Z,923.49
2016-11-16T13:22:59.024Z,923.51
2016-11-16T13:24:11.623Z,923.57
2016-11-16T13:25:24.488Z,923.64
2016-11-16T13:26:37.084Z,923.48
2016-11-16T13:27:50.653Z,923.64
2016-11-16T13:29:03.751Z,923.51
2016-11-16T13:30:16.783Z,923.53
2016-11-16T13:31:30.384Z,923.46
2016-11-16T13:32:44.055Z,923.67
2016-11-16T13:33:57.640Z,923.52
2016-11-16T13:35:11.182Z,923.56
2016-11-16T13:36:24.299Z,923.51
2016-11-16T13:37:37.364Z,923.45
2016-11-16T13:38:50.960Z,923.43
2016-11-16T13:40:04.547Z,923.53
2016-11-16T13:41:18.167Z,923.44
2016-11-16T13:42:31.225Z,923.47
2016-11-16T13:43:44.798Z,923.45
2016-11-16T13:44:57.863Z,923.46
2016-11-16T13:46:11.512Z,923.41
2016-11-16T13:47:24.318Z,923.56
2016-11-16T13:48:36.816Z,923.5
2016-11-16T13:49:48.840Z,923.57
2016-11-16T13:51:02.494Z,923.52
2016-11-16T13:52:15.523Z,923.45
2016-11-16T13:53:29.291Z,923.46
2016-11-16T13:54:42.350Z,923.52
2016-11-16T13:55:55.960Z,923.58
2016-11-16T13:57:09.106Z,923.5
2016-11-16T13:58:22.191Z,923.5
2016-11-16T13:59:35.256Z,923.55
2016-11-16T14:00:48.383Z,923.61
2016-11-16T14:02:01.975Z,923.63
2016-11-16T14:03:15.629Z,923.55
2016-11-16T14:04:29.612Z,923.63
2016-11-16T14:05:42.664Z,923.5
2016-11-16T14:06:56.317Z,923.53
2016-11-16T14:08:10.013Z,923.59
2016-11-16T14:09:23.165Z,923.56
2016-11-16T14:10:36.175Z,923.56
2016-11-16T14:11:49.967Z,923.48
2016-11-16T14:13:03.584Z,923.48
2016-11-16T14:14:48.327Z,923.52
2016-11-16T14:16:01.875Z,923.59
2016-11-16T14:17:15.489Z,923.49
2016-11-16T14:18:29.362Z,923.55
2016-11-16T14:20:14.110Z,923.53
2016-11-16T14:21:27.208Z,923.59
2016-11-16T14:22:40.353Z,923.65
2016-11-16T14:23:53.948Z,923.58
2016-11-16T14:25:07.560Z,923.66
2016-11-16T14:26:21.937Z,923.57
2016-11-16T14:27:35.553Z,923.46
2016-11-16T14:28:49.098Z,923.52
2016-11-16T14:30:02.692Z,923.44
2016-11-16T14:31:16.288Z,923.41
2016-11-16T14:32:29.917Z,923.59
2016-11-16T14:33:43.006Z,923.52
2016-11-16T14:34:56.225Z,923.48
2016-11-16T14:36:09.795Z,923.43
2016-11-16T14:37:23.363Z,923.48
2016-11-16T14:38:36.753Z,923.48
2016-11-16T14:39:50.315Z,923.43
2016-11-16T14:41:03.398Z,923.42
2016-11-16T14:42:17.001Z,923.5
2016-11-16T14:43:30.639Z,923.46
2016-11-16T14:44:43.180Z,923.53
2016-11-16T14:45:56.528Z,923.51
2016-11-16T14:47:10.128Z,923.42
2016-11-16T14:48:23.747Z,923.5
2016-11-16T14:49:36.759Z,923.54
2016-11-16T14:50:49.986Z,923.76
2016-11-16T14:52:03.666Z,923.53
2016-11-16T14:53:16.718Z,923.46
2016-11-16T14:54:29.768Z,923.47
2016-11-16T14:55:43.370Z,923.38
2016-11-16T14:56:56.220Z,923.41
2016-11-16T14:58:09.296Z,923.41
2016-11-16T14:59:22.391Z,923.34
2016-11-16T15:00:36.191Z,923.4
2016-11-16T15:01:50.011Z,923.26
2016-11-16T15:03:03.681Z,923.36
2016-11-16T15:04:16.825Z,923.33
2016-11-16T15:05:31.183Z,923.27
2016-11-16T15:06:44.795Z,923.34
2016-11-16T15:07:57.844Z,923.37
2016-11-16T15:09:11.471Z,923.3
2016-11-16T15:10:25.071Z,923.42
2016-11-16T15:11:38.708Z,923.56
2016-11-16T15:12:52.284Z,923.42
2016-11-16T15:14:05.901Z,923.51
2016-11-16T15:15:19.464Z,923.45
2016-11-16T15:16:33.055Z,923.39
2016-11-16T15:17:46.700Z,923.49
2016-11-16T15:18:59.977Z,923.24
2016-11-16T15:20:13.513Z,923.34
2016-11-16T15:21:27.159Z,923.3
2016-11-16T15:22:40.489Z,923.4
2016-11-16T15:23:54.120Z,923.23
2016-11-16T15:25:38.576Z,923.21
2016-11-16T15:27:23.292Z,923.19
2016-11-16T15:28:35.770Z,923.21
2016-11-16T15:29:49.344Z,923.24
2016-11-16T15:31:02.934Z,923.26
2016-11-16T15:32:16.067Z,923.31
2016-11-16T15:33:29.711Z,923.34
2016-11-16T15:35:14.408Z,923.07
2016-11-16T15:36:28.004Z,923.22
2016-11-16T15:37:41.070Z,923.26
2016-11-16T15:38:54.666Z,923.12
2016-11-16T15:40:08.308Z,923.13
2016-11-16T15:41:21.986Z,923.32
2016-11-16T15:42:35.105Z,923.07
2016-11-16T15:45:32.591Z,923.15
2016-11-16T15:47:16.766Z,923.08
2016-11-16T15:48:29.810Z,922.99
2016-11-16T15:49:43.367Z,923.06
2016-11-16T15:50:56.432Z,923.05
2016-11-16T15:52:09.563Z,923.1
2016-11-16T15:53:23.281Z,923.12
2016-11-16T15:54:36.379Z,922.98
2016-11-16T15:55:49.609Z,922.84
2016-11-16T15:57:02.612Z,922.95
2016-11-16T15:58:15.662Z,922.97
2016-11-16T15:59:28.921Z,922.96
2016-11-16T16:00:42.557Z,923.02
2016-11-16T16:01:56.227Z,922.92
2016-11-16T16:03:09.870Z,922.97
2016-11-16T16:04:23.403Z,922.9
2016-11-16T16:05:36.961Z,923.03
2016-11-16T16:06:50.588Z,922.93
2016-11-16T16:08:03.726Z,922.83
2016-11-16T16:09:17.325Z,922.82
2016-11-16T16:10:30.454Z,922.77
2016-11-16T16:11:43.468Z,922.73
2016-11-16T16:12:57.085Z,922.8
2016-11-16T16:14:10.746Z,922.89
2016-11-16T16:15:24.447Z,922.82
2016-11-16T16:16:38.041Z,922.74
2016-11-16T16:17:51.896Z,922.67
2016-11-16T16:19:05.468Z,922.71
2016-11-16T16:20:19.064Z,922.68
2016-11-16T16:21:32.416Z,922.71
2016-11-16T16:22:46.137Z,922.58
2016-11-16T16:23:59.367Z,922.68
2016-11-16T16:25:12.500Z,922.57
2016-11-16T16:26:25.761Z,922.65
2016-11-16T16:27:38.831Z,922.61
2016-11-16T16:28:52.479Z,922.51
2016-11-16T16:30:05.228Z,922.45
2016-11-16T16:31:18.939Z,922.46
2016-11-16T16:33:03.727Z,922.44
2016-11-16T16:34:17.319Z,922.36
2016-11-16T16:35:30.939Z,922.27
2016-11-16T16:36:44.560Z,922.3
2016-11-16T16:37:58.176Z,922.33
2016-11-16T16:39:11.718Z,922.22
2016-11-16T16:40:25.313Z,922.21
2016-11-16T16:41:38.946Z,922.05
2016-11-16T16:42:52.077Z,922.06
2016-11-16T16:44:05.633Z,922.01
2016-11-16T16:45:19.272Z,922.07
2016-11-16T16:46:32.648Z,922.09
2016-11-16T16:47:45.680Z,922.07
2016-11-16T16:48:59.492Z,922.01
2016-11-16T16:50:12.574Z,922.06
2016-11-16T16:51:25.776Z,922.32
2016-11-16T16:52:39.357Z,922.21
2016-11-16T16:53:53.215Z,922.34
2016-11-16T16:55:06.271Z,922.27
2016-11-16T16:56:19.354Z,922.23
2016-11-16T16:58:03.783Z,922.13
2016-11-16T16:59:16.354Z,922.11
2016-11-16T17:00:29.473Z,922.03
2016-11-16T17:01:42.591Z,922.08